sensor_id;sensor_type;location;lat;lon;timestamp;P1;durP1;ratioP1;P2;durP2;ratioP2
36593;SDS011;22603;47.900;8.146;2024-02-26T00:01:38;1.53;;;0.60;;
36593;SDS011;22603;47.900;8.146;2024-02-26T00:04:25;4.40;;;0.70;;
36593;SDS011;22603;47.900;8.146;2024-02-26T00:07:12;2.10;;;1.03;;
36593;SDS011;22603;47.900;8.146;2024-02-26T00:09:58;1.63;;;0.80;;
36593;SDS011;22603;47.900;8.146;2024-02-26T00:12:47;1.47;;;0.90;;
36593;SDS011;22603;47.900;8.146;2024-02-26T00:15:34;1.80;;;0.80;;
36593;SDS011;22603;47.900;8.146;2024-02-26T00:18:21;1.10;;;0.70;;
36593;SDS011;22603;47.900;8.146;2024-02-26T00:21:08;2.30;;;1.00;;
36593;SDS011;22603;47.900;8.146;2024-02-26T00:23:55;1.47;;;0.80;;
36593;SDS011;22603;47.900;8.146;2024-02-26T00:26:42;0.30;;;0.30;;
36593;SDS011;22603;47.900;8.146;2024-02-26T00:29:30;0.60;;;0.60;;
36593;SDS011;22603;47.900;8.146;2024-02-26T00:32:17;2.80;;;0.60;;
36593;SDS011;22603;47.900;8.146;2024-02-26T00:35:04;1.17;;;0.63;;
36593;SDS011;22603;47.900;8.146;2024-02-26T00:37:52;0.70;;;0.60;;
36593;SDS011;22603;47.900;8.146;2024-02-26T00:40:39;0.80;;;0.60;;
36593;SDS011;22603;47.900;8.146;2024-02-26T00:43:26;0.93;;;0.53;;
36593;SDS011;22603;47.900;8.146;2024-02-26T00:46:14;1.70;;;0.60;;
36593;SDS011;22603;47.900;8.146;2024-02-26T00:49:01;1.20;;;0.57;;
36593;SDS011;22603;47.900;8.146;2024-02-26T00:51:48;0.57;;;0.40;;
36593;SDS011;22603;47.900;8.146;2024-02-26T00:54:34;0.60;;;0.30;;
36593;SDS011;22603;47.900;8.146;2024-02-26T00:57:21;0.87;;;0.50;;
36593;SDS011;22603;47.900;8.146;2024-02-26T01:00:08;0.30;;;0.30;;
36593;SDS011;22603;47.900;8.146;2024-02-26T01:02:57;0.30;;;0.30;;
36593;SDS011;22603;47.900;8.146;2024-02-26T01:05:45;0.83;;;0.50;;
36593;SDS011;22603;47.900;8.146;2024-02-26T01:08:32;0.47;;;0.40;;
36593;SDS011;22603;47.900;8.146;2024-02-26T01:11:20;0.53;;;0.43;;
36593;SDS011;22603;47.900;8.146;2024-02-26T01:14:07;0.50;;;0.40;;
36593;SDS011;22603;47.900;8.146;2024-02-26T01:16:54;1.17;;;0.40;;
36593;SDS011;22603;47.900;8.146;2024-02-26T01:19:42;0.30;;;0.30;;
36593;SDS011;22603;47.900;8.146;2024-02-26T01:22:28;0.70;;;0.43;;
36593;SDS011;22603;47.900;8.146;2024-02-26T01:25:15;0.87;;;0.43;;
36593;SDS011;22603;47.900;8.146;2024-02-26T01:28:03;0.57;;;0.40;;
36593;SDS011;22603;47.900;8.146;2024-02-26T01:30:50;0.40;;;0.40;;
36593;SDS011;22603;47.900;8.146;2024-02-26T01:33:36;1.40;;;0.80;;
36593;SDS011;22603;47.900;8.146;2024-02-26T01:36:25;0.97;;;0.60;;
36593;SDS011;22603;47.900;8.146;2024-02-26T01:39:12;0.40;;;0.40;;
36593;SDS011;22603;47.900;8.146;2024-02-26T01:42:00;0.53;;;0.47;;
36593;SDS011;22603;47.900;8.146;2024-02-26T01:44:47;0.70;;;0.60;;
36593;SDS011;22603;47.900;8.146;2024-02-26T01:47:34;1.60;;;0.57;;
36593;SDS011;22603;47.900;8.146;2024-02-26T01:50:21;0.50;;;0.50;;
36593;SDS011;22603;47.900;8.146;2024-02-26T01:53:10;0.40;;;0.30;;
36593;SDS011;22603;47.900;8.146;2024-02-26T01:55:57;0.50;;;0.50;;
36593;SDS011;22603;47.900;8.146;2024-02-26T01:58:44;0.77;;;0.53;;
36593;SDS011;22603;47.900;8.146;2024-02-26T02:01:31;0.80;;;0.50;;
36593;SDS011;22603;47.900;8.146;2024-02-26T02:04:20;2.63;;;0.50;;
36593;SDS011;22603;47.900;8.146;2024-02-26T02:07:09;0.87;;;0.50;;
36593;SDS011;22603;47.900;8.146;2024-02-26T02:09:57;0.67;;;0.50;;
36593;SDS011;22603;47.900;8.146;2024-02-26T02:12:44;1.77;;;0.70;;
36593;SDS011;22603;47.900;8.146;2024-02-26T02:15:31;1.17;;;0.50;;
36593;SDS011;22603;47.900;8.146;2024-02-26T02:18:18;0.63;;;0.60;;
36593;SDS011;22603;47.900;8.146;2024-02-26T02:21:07;1.13;;;0.60;;
36593;SDS011;22603;47.900;8.146;2024-02-26T02:23:54;0.50;;;0.40;;
36593;SDS011;22603;47.900;8.146;2024-02-26T02:26:41;2.10;;;0.60;;
36593;SDS011;22603;47.900;8.146;2024-02-26T02:29:28;0.50;;;0.50;;
36593;SDS011;22603;47.900;8.146;2024-02-26T02:32:16;0.47;;;0.40;;
36593;SDS011;22603;47.900;8.146;2024-02-26T02:35:04;2.10;;;0.50;;
36593;SDS011;22603;47.900;8.146;2024-02-26T02:37:54;0.97;;;0.70;;
36593;SDS011;22603;47.900;8.146;2024-02-26T02:40:42;1.07;;;0.60;;
36593;SDS011;22603;47.900;8.146;2024-02-26T02:43:29;0.70;;;0.50;;
36593;SDS011;22603;47.900;8.146;2024-02-26T02:46:16;1.70;;;0.60;;
36593;SDS011;22603;47.900;8.146;2024-02-26T02:49:03;0.43;;;0.43;;
36593;SDS011;22603;47.900;8.146;2024-02-26T02:51:49;1.33;;;0.70;;
36593;SDS011;22603;47.900;8.146;2024-02-26T02:54:39;3.07;;;0.53;;
36593;SDS011;22603;47.900;8.146;2024-02-26T02:57:27;0.50;;;0.50;;
36593;SDS011;22603;47.900;8.146;2024-02-26T03:00:14;1.03;;;0.50;;
36593;SDS011;22603;47.900;8.146;2024-02-26T03:03:01;1.47;;;0.63;;
36593;SDS011;22603;47.900;8.146;2024-02-26T03:05:49;1.10;;;0.43;;
36593;SDS011;22603;47.900;8.146;2024-02-26T03:08:36;4.53;;;0.70;;
36593;SDS011;22603;47.900;8.146;2024-02-26T03:11:25;0.30;;;0.30;;
36593;SDS011;22603;47.900;8.146;2024-02-26T03:14:12;0.90;;;0.50;;
36593;SDS011;22603;47.900;8.146;2024-02-26T03:16:59;1.10;;;0.60;;
36593;SDS011;22603;47.900;8.146;2024-02-26T03:19:46;0.50;;;0.40;;
36593;SDS011;22603;47.900;8.146;2024-02-26T03:22:38;1.13;;;0.60;;
36593;SDS011;22603;47.900;8.146;2024-02-26T03:25:25;1.50;;;0.63;;
36593;SDS011;22603;47.900;8.146;2024-02-26T03:28:13;1.07;;;0.70;;
36593;SDS011;22603;47.900;8.146;2024-02-26T03:31:00;1.10;;;0.40;;
36593;SDS011;22603;47.900;8.146;2024-02-26T03:33:48;1.23;;;0.67;;
36593;SDS011;22603;47.900;8.146;2024-02-26T03:36:35;1.70;;;0.70;;
36593;SDS011;22603;47.900;8.146;2024-02-26T03:39:21;4.00;;;0.80;;
36593;SDS011;22603;47.900;8.146;2024-02-26T03:42:08;0.60;;;0.60;;
36593;SDS011;22603;47.900;8.146;2024-02-26T03:44:56;1.27;;;0.60;;
36593;SDS011;22603;47.900;8.146;2024-02-26T03:47:43;0.73;;;0.63;;
36593;SDS011;22603;47.900;8.146;2024-02-26T03:50:31;1.37;;;0.50;;
36593;SDS011;22603;47.900;8.146;2024-02-26T03:53:18;0.73;;;0.33;;
36593;SDS011;22603;47.900;8.146;2024-02-26T03:56:05;0.63;;;0.50;;
36593;SDS011;22603;47.900;8.146;2024-02-26T03:58:52;0.77;;;0.53;;
36593;SDS011;22603;47.900;8.146;2024-02-26T04:01:44;0.60;;;0.57;;
36593;SDS011;22603;47.900;8.146;2024-02-26T04:04:33;0.87;;;0.60;;
36593;SDS011;22603;47.900;8.146;2024-02-26T04:07:20;0.90;;;0.47;;
36593;SDS011;22603;47.900;8.146;2024-02-26T04:10:10;0.53;;;0.53;;
36593;SDS011;22603;47.900;8.146;2024-02-26T04:12:58;1.17;;;0.80;;
36593;SDS011;22603;47.900;8.146;2024-02-26T04:15:44;0.73;;;0.60;;
36593;SDS011;22603;47.900;8.146;2024-02-26T04:18:33;1.60;;;0.53;;
36593;SDS011;22603;47.900;8.146;2024-02-26T04:21:20;0.97;;;0.50;;
36593;SDS011;22603;47.900;8.146;2024-02-26T04:24:07;0.37;;;0.37;;
36593;SDS011;22603;47.900;8.146;2024-02-26T04:26:53;0.40;;;0.40;;
36593;SDS011;22603;47.900;8.146;2024-02-26T04:29:40;0.30;;;0.30;;
36593;SDS011;22603;47.900;8.146;2024-02-26T04:32:27;1.53;;;0.60;;
36593;SDS011;22603;47.900;8.146;2024-02-26T04:35:15;0.80;;;0.50;;
36593;SDS011;22603;47.900;8.146;2024-02-26T04:38:02;1.90;;;0.80;;
36593;SDS011;22603;47.900;8.146;2024-02-26T04:40:49;1.80;;;0.70;;
36593;SDS011;22603;47.900;8.146;2024-02-26T04:43:35;0.40;;;0.40;;
36593;SDS011;22603;47.900;8.146;2024-02-26T04:46:26;3.97;;;0.50;;
36593;SDS011;22603;47.900;8.146;2024-02-26T04:49:13;0.40;;;0.40;;
36593;SDS011;22603;47.900;8.146;2024-02-26T04:52:01;5.00;;;0.50;;
36593;SDS011;22603;47.900;8.146;2024-02-26T04:54:48;0.50;;;0.50;;
36593;SDS011;22603;47.900;8.146;2024-02-26T04:57:35;0.60;;;0.50;;
36593;SDS011;22603;47.900;8.146;2024-02-26T05:00:21;0.87;;;0.43;;
36593;SDS011;22603;47.900;8.146;2024-02-26T05:03:08;0.30;;;0.30;;
36593;SDS011;22603;47.900;8.146;2024-02-26T05:05:58;0.60;;;0.40;;
36593;SDS011;22603;47.900;8.146;2024-02-26T05:08:47;0.57;;;0.40;;
36593;SDS011;22603;47.900;8.146;2024-02-26T05:11:34;0.43;;;0.43;;
36593;SDS011;22603;47.900;8.146;2024-02-26T05:14:24;1.13;;;0.57;;
36593;SDS011;22603;47.900;8.146;2024-02-26T05:17:11;1.40;;;0.70;;
36593;SDS011;22603;47.900;8.146;2024-02-26T05:19:57;0.40;;;0.40;;
36593;SDS011;22603;47.900;8.146;2024-02-26T05:22:44;0.67;;;0.30;;
36593;SDS011;22603;47.900;8.146;2024-02-26T05:25:33;0.53;;;0.50;;
36593;SDS011;22603;47.900;8.146;2024-02-26T05:28:21;0.40;;;0.40;;
36593;SDS011;22603;47.900;8.146;2024-02-26T05:31:07;0.90;;;0.60;;
36593;SDS011;22603;47.900;8.146;2024-02-26T05:33:54;0.60;;;0.40;;
36593;SDS011;22603;47.900;8.146;2024-02-26T05:36:41;4.83;;;0.50;;
36593;SDS011;22603;47.900;8.146;2024-02-26T05:39:29;0.30;;;0.30;;
36593;SDS011;22603;47.900;8.146;2024-02-26T05:42:18;0.30;;;0.30;;
36593;SDS011;22603;47.900;8.146;2024-02-26T05:45:05;0.80;;;0.60;;
36593;SDS011;22603;47.900;8.146;2024-02-26T05:47:53;0.53;;;0.50;;
36593;SDS011;22603;47.900;8.146;2024-02-26T05:50:40;1.03;;;0.50;;
36593;SDS011;22603;47.900;8.146;2024-02-26T05:53:27;0.53;;;0.47;;
36593;SDS011;22603;47.900;8.146;2024-02-26T05:56:13;1.40;;;0.50;;
36593;SDS011;22603;47.900;8.146;2024-02-26T05:59:01;0.50;;;0.50;;
36593;SDS011;22603;47.900;8.146;2024-02-26T06:01:48;1.57;;;0.43;;
36593;SDS011;22603;47.900;8.146;2024-02-26T06:04:35;1.07;;;0.57;;
36593;SDS011;22603;47.900;8.146;2024-02-26T06:07:21;0.73;;;0.40;;
36593;SDS011;22603;47.900;8.146;2024-02-26T06:10:08;1.80;;;0.80;;
36593;SDS011;22603;47.900;8.146;2024-02-26T06:12:58;2.00;;;1.10;;
36593;SDS011;22603;47.900;8.146;2024-02-26T06:15:46;5.63;;;1.00;;
36593;SDS011;22603;47.900;8.146;2024-02-26T06:18:33;1.57;;;0.60;;
36593;SDS011;22603;47.900;8.146;2024-02-26T06:21:20;1.47;;;0.73;;
36593;SDS011;22603;47.900;8.146;2024-02-26T06:24:07;2.53;;;1.00;;
36593;SDS011;22603;47.900;8.146;2024-02-26T06:26:53;1.20;;;0.67;;
36593;SDS011;22603;47.900;8.146;2024-02-26T06:29:40;1.37;;;0.50;;
36593;SDS011;22603;47.900;8.146;2024-02-26T06:32:28;0.83;;;0.40;;
36593;SDS011;22603;47.900;8.146;2024-02-26T06:35:15;1.23;;;0.57;;
36593;SDS011;22603;47.900;8.146;2024-02-26T06:38:01;1.37;;;0.67;;
36593;SDS011;22603;47.900;8.146;2024-02-26T06:40:49;1.23;;;0.43;;
36593;SDS011;22603;47.900;8.146;2024-02-26T06:43:36;1.10;;;0.90;;
36593;SDS011;22603;47.900;8.146;2024-02-26T06:46:23;1.57;;;0.90;;
36593;SDS011;22603;47.900;8.146;2024-02-26T06:49:12;5.77;;;1.13;;
36593;SDS011;22603;47.900;8.146;2024-02-26T06:52:00;1.13;;;0.80;;
36593;SDS011;22603;47.900;8.146;2024-02-26T06:54:46;0.83;;;0.53;;
36593;SDS011;22603;47.900;8.146;2024-02-26T06:57:36;0.87;;;0.60;;
36593;SDS011;22603;47.900;8.146;2024-02-26T07:00:23;1.27;;;0.70;;
36593;SDS011;22603;47.900;8.146;2024-02-26T07:03:10;0.80;;;0.50;;
36593;SDS011;22603;47.900;8.146;2024-02-26T07:06:00;0.90;;;0.70;;
36593;SDS011;22603;47.900;8.146;2024-02-26T07:08:47;0.33;;;0.33;;
36593;SDS011;22603;47.900;8.146;2024-02-26T07:11:33;0.87;;;0.60;;
36593;SDS011;22603;47.900;8.146;2024-02-26T07:14:20;1.10;;;0.70;;
36593;SDS011;22603;47.900;8.146;2024-02-26T07:17:07;1.27;;;0.70;;
36593;SDS011;22603;47.900;8.146;2024-02-26T07:19:54;0.60;;;0.43;;
36593;SDS011;22603;47.900;8.146;2024-02-26T07:22:42;1.83;;;0.60;;
36593;SDS011;22603;47.900;8.146;2024-02-26T07:25:29;4.27;;;0.80;;
36593;SDS011;22603;47.900;8.146;2024-02-26T07:28:16;0.47;;;0.40;;
36593;SDS011;22603;47.900;8.146;2024-02-26T07:31:03;1.47;;;0.60;;
36593;SDS011;22603;47.900;8.146;2024-02-26T07:33:50;0.57;;;0.47;;
36593;SDS011;22603;47.900;8.146;2024-02-26T07:36:37;0.80;;;0.73;;
36593;SDS011;22603;47.900;8.146;2024-02-26T07:39:25;1.47;;;0.80;;
36593;SDS011;22603;47.900;8.146;2024-02-26T07:42:12;1.10;;;0.60;;
36593;SDS011;22603;47.900;8.146;2024-02-26T07:44:59;1.03;;;0.70;;
36593;SDS011;22603;47.900;8.146;2024-02-26T07:47:46;3.00;;;1.30;;
36593;SDS011;22603;47.900;8.146;2024-02-26T07:50:33;3.03;;;1.10;;
36593;SDS011;22603;47.900;8.146;2024-02-26T07:53:19;3.90;;;1.37;;
36593;SDS011;22603;47.900;8.146;2024-02-26T07:56:08;2.57;;;1.20;;
36593;SDS011;22603;47.900;8.146;2024-02-26T07:58:55;3.87;;;1.23;;
36593;SDS011;22603;47.900;8.146;2024-02-26T08:01:42;1.07;;;0.60;;
36593;SDS011;22603;47.900;8.146;2024-02-26T08:04:33;0.40;;;0.40;;
36593;SDS011;22603;47.900;8.146;2024-02-26T08:07:20;1.33;;;0.70;;
36593;SDS011;22603;47.900;8.146;2024-02-26T08:10:08;0.93;;;0.60;;
36593;SDS011;22603;47.900;8.146;2024-02-26T08:12:57;1.30;;;0.70;;
36593;SDS011;22603;47.900;8.146;2024-02-26T08:15:50;2.33;;;0.73;;
36593;SDS011;22603;47.900;8.146;2024-02-26T08:18:37;1.27;;;0.73;;
36593;SDS011;22603;47.900;8.146;2024-02-26T08:21:24;4.63;;;0.90;;
36593;SDS011;22603;47.900;8.146;2024-02-26T08:24:11;1.40;;;0.57;;
36593;SDS011;22603;47.900;8.146;2024-02-26T08:26:58;0.50;;;0.50;;
36593;SDS011;22603;47.900;8.146;2024-02-26T08:29:46;1.60;;;0.70;;
36593;SDS011;22603;47.900;8.146;2024-02-26T08:32:33;0.93;;;0.47;;
36593;SDS011;22603;47.900;8.146;2024-02-26T08:35:20;1.23;;;0.70;;
36593;SDS011;22603;47.900;8.146;2024-02-26T08:38:07;0.60;;;0.60;;
36593;SDS011;22603;47.900;8.146;2024-02-26T08:40:54;1.90;;;0.60;;
36593;SDS011;22603;47.900;8.146;2024-02-26T08:43:41;0.37;;;0.37;;
36593;SDS011;22603;47.900;8.146;2024-02-26T08:46:28;1.07;;;0.60;;
36593;SDS011;22603;47.900;8.146;2024-02-26T08:49:15;1.13;;;0.60;;
36593;SDS011;22603;47.900;8.146;2024-02-26T08:52:02;0.90;;;0.70;;
36593;SDS011;22603;47.900;8.146;2024-02-26T08:54:51;0.60;;;0.50;;
36593;SDS011;22603;47.900;8.146;2024-02-26T08:57:38;0.50;;;0.47;;
36593;SDS011;22603;47.900;8.146;2024-02-26T09:00:25;0.60;;;0.60;;
36593;SDS011;22603;47.900;8.146;2024-02-26T09:03:13;0.90;;;0.50;;
36593;SDS011;22603;47.900;8.146;2024-02-26T09:05:59;1.23;;;0.60;;
36593;SDS011;22603;47.900;8.146;2024-02-26T09:08:47;0.50;;;0.50;;
36593;SDS011;22603;47.900;8.146;2024-02-26T09:11:33;0.83;;;0.60;;
36593;SDS011;22603;47.900;8.146;2024-02-26T09:14:20;0.30;;;0.30;;
36593;SDS011;22603;47.900;8.146;2024-02-26T09:17:09;0.87;;;0.50;;
36593;SDS011;22603;47.900;8.146;2024-02-26T09:19:57;2.03;;;0.50;;
36593;SDS011;22603;47.900;8.146;2024-02-26T09:22:45;1.00;;;0.53;;
36593;SDS011;22603;47.900;8.146;2024-02-26T09:25:32;1.03;;;0.40;;
36593;SDS011;22603;47.900;8.146;2024-02-26T09:28:19;0.57;;;0.50;;
36593;SDS011;22603;47.900;8.146;2024-02-26T09:31:06;0.80;;;0.50;;
36593;SDS011;22603;47.900;8.146;2024-02-26T09:33:52;0.50;;;0.33;;
36593;SDS011;22603;47.900;8.146;2024-02-26T09:36:44;1.87;;;0.87;;
36593;SDS011;22603;47.900;8.146;2024-02-26T09:39:31;0.37;;;0.37;;
36593;SDS011;22603;47.900;8.146;2024-02-26T09:42:18;0.87;;;0.43;;
36593;SDS011;22603;47.900;8.146;2024-02-26T09:45:05;1.13;;;0.60;;
36593;SDS011;22603;47.900;8.146;2024-02-26T09:47:57;1.07;;;0.40;;
36593;SDS011;22603;47.900;8.146;2024-02-26T09:50:45;1.70;;;0.60;;
36593;SDS011;22603;47.900;8.146;2024-02-26T09:53:34;1.40;;;0.70;;
36593;SDS011;22603;47.900;8.146;2024-02-26T09:56:24;1.10;;;0.50;;
36593;SDS011;22603;47.900;8.146;2024-02-26T09:59:13;0.83;;;0.30;;
36593;SDS011;22603;47.900;8.146;2024-02-26T10:02:03;0.50;;;0.50;;
36593;SDS011;22603;47.900;8.146;2024-02-26T10:04:50;0.97;;;0.70;;
36593;SDS011;22603;47.900;8.146;2024-02-26T10:07:38;0.63;;;0.60;;
36593;SDS011;22603;47.900;8.146;2024-02-26T10:10:27;1.20;;;0.70;;
36593;SDS011;22603;47.900;8.146;2024-02-26T10:13:16;2.10;;;1.00;;
36593;SDS011;22603;47.900;8.146;2024-02-26T10:16:05;2.40;;;0.87;;
36593;SDS011;22603;47.900;8.146;2024-02-26T10:18:53;0.77;;;0.57;;
36593;SDS011;22603;47.900;8.146;2024-02-26T10:21:44;2.97;;;0.83;;
36593;SDS011;22603;47.900;8.146;2024-02-26T10:24:31;2.30;;;0.83;;
36593;SDS011;22603;47.900;8.146;2024-02-26T10:27:21;1.70;;;0.67;;
36593;SDS011;22603;47.900;8.146;2024-02-26T10:30:15;0.87;;;0.60;;
36593;SDS011;22603;47.900;8.146;2024-02-26T10:33:04;2.30;;;0.80;;
36593;SDS011;22603;47.900;8.146;2024-02-26T10:35:53;1.60;;;0.87;;
36593;SDS011;22603;47.900;8.146;2024-02-26T10:38:41;1.00;;;0.67;;
36593;SDS011;22603;47.900;8.146;2024-02-26T10:41:28;0.87;;;0.70;;
36593;SDS011;22603;47.900;8.146;2024-02-26T10:44:16;1.13;;;0.90;;
36593;SDS011;22603;47.900;8.146;2024-02-26T10:47:03;1.10;;;0.82;;
36593;SDS011;22603;47.900;8.146;2024-02-26T10:49:51;1.60;;;0.60;;
36593;SDS011;22603;47.900;8.146;2024-02-26T10:52:38;1.08;;;0.65;;
36593;SDS011;22603;47.900;8.146;2024-02-26T10:55:26;1.63;;;0.85;;
36593;SDS011;22603;47.900;8.146;2024-02-26T10:58:14;3.60;;;0.85;;
36593;SDS011;22603;47.900;8.146;2024-02-26T11:01:04;1.27;;;0.63;;
36593;SDS011;22603;47.900;8.146;2024-02-26T11:03:52;0.73;;;0.63;;
36593;SDS011;22603;47.900;8.146;2024-02-26T11:06:40;1.13;;;0.60;;
36593;SDS011;22603;47.900;8.146;2024-02-26T11:09:27;1.10;;;0.68;;
36593;SDS011;22603;47.900;8.146;2024-02-26T11:12:14;2.10;;;0.90;;
36593;SDS011;22603;47.900;8.146;2024-02-26T11:15:02;0.82;;;0.80;;
36593;SDS011;22603;47.900;8.146;2024-02-26T11:17:52;2.50;;;0.90;;
36593;SDS011;22603;47.900;8.146;2024-02-26T11:20:40;1.52;;;0.60;;
36593;SDS011;22603;47.900;8.146;2024-02-26T11:23:27;0.60;;;0.60;;
36593;SDS011;22603;47.900;8.146;2024-02-26T11:26:14;1.60;;;0.70;;
36593;SDS011;22603;47.900;8.146;2024-02-26T11:29:03;1.95;;;0.93;;
36593;SDS011;22603;47.900;8.146;2024-02-26T11:31:50;0.95;;;0.70;;
36593;SDS011;22603;47.900;8.146;2024-02-26T11:34:40;1.10;;;0.70;;
36593;SDS011;22603;47.900;8.146;2024-02-26T11:37:29;0.90;;;0.55;;
36593;SDS011;22603;47.900;8.146;2024-02-26T11:40:20;0.63;;;0.55;;
36593;SDS011;22603;47.900;8.146;2024-02-26T11:43:08;1.60;;;0.60;;
36593;SDS011;22603;47.900;8.146;2024-02-26T11:45:55;2.15;;;0.60;;
36593;SDS011;22603;47.900;8.146;2024-02-26T11:48:44;0.63;;;0.57;;
36593;SDS011;22603;47.900;8.146;2024-02-26T11:51:34;1.10;;;0.50;;
36593;SDS011;22603;47.900;8.146;2024-02-26T11:57:30;2.42;;;0.77;;
36593;SDS011;22603;47.900;8.146;2024-02-26T12:00:26;2.28;;;0.63;;
36593;SDS011;22603;47.900;8.146;2024-02-26T12:03:17;0.82;;;0.50;;
36593;SDS011;22603;47.900;8.146;2024-02-26T12:06:05;0.45;;;0.45;;
36593;SDS011;22603;47.900;8.146;2024-02-26T12:08:54;0.57;;;0.40;;
36593;SDS011;22603;47.900;8.146;2024-02-26T12:11:42;0.60;;;0.60;;
36593;SDS011;22603;47.900;8.146;2024-02-26T12:14:29;0.97;;;0.60;;
36593;SDS011;22603;47.900;8.146;2024-02-26T12:17:19;1.20;;;0.80;;
36593;SDS011;22603;47.900;8.146;2024-02-26T12:20:10;4.77;;;0.57;;
36593;SDS011;22603;47.900;8.146;2024-02-26T12:22:58;0.63;;;0.60;;
36593;SDS011;22603;47.900;8.146;2024-02-26T12:25:47;1.07;;;0.70;;
36593;SDS011;22603;47.900;8.146;2024-02-26T12:28:34;1.13;;;0.63;;
36593;SDS011;22603;47.900;8.146;2024-02-26T12:31:20;4.23;;;0.77;;
36593;SDS011;22603;47.900;8.146;2024-02-26T12:34:07;0.40;;;0.40;;
36593;SDS011;22603;47.900;8.146;2024-02-26T12:36:55;1.03;;;0.60;;
36593;SDS011;22603;47.900;8.146;2024-02-26T12:39:43;1.43;;;0.70;;
36593;SDS011;22603;47.900;8.146;2024-02-26T12:42:32;1.47;;;0.80;;
36593;SDS011;22603;47.900;8.146;2024-02-26T12:45:25;4.65;;;0.60;;
36593;SDS011;22603;47.900;8.146;2024-02-26T12:48:13;1.17;;;0.65;;
36593;SDS011;22603;47.900;8.146;2024-02-26T12:51:00;0.50;;;0.50;;
36593;SDS011;22603;47.900;8.146;2024-02-26T12:53:50;1.08;;;0.60;;
36593;SDS011;22603;47.900;8.146;2024-02-26T12:56:38;1.27;;;0.63;;
36593;SDS011;22603;47.900;8.146;2024-02-26T12:59:26;1.35;;;0.73;;
36593;SDS011;22603;47.900;8.146;2024-02-26T13:02:13;2.38;;;0.70;;
36593;SDS011;22603;47.900;8.146;2024-02-26T13:05:00;2.25;;;0.65;;
36593;SDS011;22603;47.900;8.146;2024-02-26T13:07:48;2.63;;;0.82;;
36593;SDS011;22603;47.900;8.146;2024-02-26T13:10:38;0.70;;;0.70;;
36593;SDS011;22603;47.900;8.146;2024-02-26T13:13:24;1.63;;;0.60;;
36593;SDS011;22603;47.900;8.146;2024-02-26T13:16:13;1.27;;;0.80;;
36593;SDS011;22603;47.900;8.146;2024-02-26T13:19:07;0.63;;;0.57;;
36593;SDS011;22603;47.900;8.146;2024-02-26T13:21:55;1.00;;;0.60;;
36593;SDS011;22603;47.900;8.146;2024-02-26T13:24:42;0.73;;;0.68;;
36593;SDS011;22603;47.900;8.146;2024-02-26T13:27:28;0.43;;;0.43;;
36593;SDS011;22603;47.900;8.146;2024-02-26T13:30:15;0.93;;;0.70;;
36593;SDS011;22603;47.900;8.146;2024-02-26T13:33:09;1.77;;;0.90;;
36593;SDS011;22603;47.900;8.146;2024-02-26T13:35:57;0.93;;;0.52;;
36593;SDS011;22603;47.900;8.146;2024-02-26T13:38:50;0.73;;;0.70;;
36593;SDS011;22603;47.900;8.146;2024-02-26T13:41:38;0.70;;;0.60;;
36593;SDS011;22603;47.900;8.146;2024-02-26T13:44:26;1.92;;;0.85;;
36593;SDS011;22603;47.900;8.146;2024-02-26T13:47:13;2.05;;;0.90;;
36593;SDS011;22603;47.900;8.146;2024-02-26T13:50:02;1.45;;;0.70;;
36593;SDS011;22603;47.900;8.146;2024-02-26T13:52:50;1.27;;;0.63;;
36593;SDS011;22603;47.900;8.146;2024-02-26T13:55:39;1.27;;;0.80;;
36593;SDS011;22603;47.900;8.146;2024-02-26T13:58:28;4.43;;;1.38;;
36593;SDS011;22603;47.900;8.146;2024-02-26T14:01:14;3.05;;;1.20;;
36593;SDS011;22603;47.900;8.146;2024-02-26T14:04:01;2.67;;;1.08;;
36593;SDS011;22603;47.900;8.146;2024-02-26T14:06:52;1.23;;;0.82;;
36593;SDS011;22603;47.900;8.146;2024-02-26T14:09:38;1.23;;;0.83;;
36593;SDS011;22603;47.900;8.146;2024-02-26T14:12:33;1.30;;;0.90;;
36593;SDS011;22603;47.900;8.146;2024-02-26T14:15:20;1.03;;;0.60;;
36593;SDS011;22603;47.900;8.146;2024-02-26T14:18:09;0.60;;;0.50;;
36593;SDS011;22603;47.900;8.146;2024-02-26T14:20:57;1.60;;;0.83;;
36593;SDS011;22603;47.900;8.146;2024-02-26T14:23:45;0.73;;;0.60;;
36593;SDS011;22603;47.900;8.146;2024-02-26T14:26:31;1.17;;;0.60;;
36593;SDS011;22603;47.900;8.146;2024-02-26T14:29:18;2.27;;;0.60;;
36593;SDS011;22603;47.900;8.146;2024-02-26T14:32:05;1.50;;;0.80;;
36593;SDS011;22603;47.900;8.146;2024-02-26T14:34:52;0.50;;;0.50;;
36593;SDS011;22603;47.900;8.146;2024-02-26T14:37:40;1.27;;;0.80;;
36593;SDS011;22603;47.900;8.146;2024-02-26T14:40:30;0.73;;;0.70;;
36593;SDS011;22603;47.900;8.146;2024-02-26T14:43:17;3.33;;;0.80;;
36593;SDS011;22603;47.900;8.146;2024-02-26T14:46:03;3.60;;;0.90;;
36593;SDS011;22603;47.900;8.146;2024-02-26T14:48:50;1.77;;;0.97;;
36593;SDS011;22603;47.900;8.146;2024-02-26T14:51:37;2.37;;;0.90;;
36593;SDS011;22603;47.900;8.146;2024-02-26T14:54:24;2.53;;;0.97;;
36593;SDS011;22603;47.900;8.146;2024-02-26T14:57:13;2.30;;;1.03;;
36593;SDS011;22603;47.900;8.146;2024-02-26T14:59:59;0.77;;;0.77;;
36593;SDS011;22603;47.900;8.146;2024-02-26T15:02:47;1.30;;;0.93;;
36593;SDS011;22603;47.900;8.146;2024-02-26T15:05:34;2.07;;;0.93;;
36593;SDS011;22603;47.900;8.146;2024-02-26T15:08:21;2.67;;;1.00;;
36593;SDS011;22603;47.900;8.146;2024-02-26T15:11:07;3.03;;;1.03;;
36593;SDS011;22603;47.900;8.146;2024-02-26T15:13:55;1.20;;;0.80;;
36593;SDS011;22603;47.900;8.146;2024-02-26T15:16:42;1.83;;;0.80;;
36593;SDS011;22603;47.900;8.146;2024-02-26T15:19:29;1.67;;;0.77;;
36593;SDS011;22603;47.900;8.146;2024-02-26T15:22:16;2.07;;;0.90;;
36593;SDS011;22603;47.900;8.146;2024-02-26T15:25:03;0.93;;;0.67;;
36593;SDS011;22603;47.900;8.146;2024-02-26T15:27:50;1.90;;;0.90;;
36593;SDS011;22603;47.900;8.146;2024-02-26T15:30:39;1.47;;;0.70;;
36593;SDS011;22603;47.900;8.146;2024-02-26T15:33:26;5.70;;;1.10;;
36593;SDS011;22603;47.900;8.146;2024-02-26T15:36:12;1.03;;;0.70;;
36593;SDS011;22603;47.900;8.146;2024-02-26T15:38:59;0.83;;;0.67;;
36593;SDS011;22603;47.900;8.146;2024-02-26T15:41:47;1.93;;;0.80;;
36593;SDS011;22603;47.900;8.146;2024-02-26T15:44:34;1.30;;;0.90;;
36593;SDS011;22603;47.900;8.146;2024-02-26T15:47:24;2.53;;;0.70;;
36593;SDS011;22603;47.900;8.146;2024-02-26T15:50:11;0.63;;;0.63;;
36593;SDS011;22603;47.900;8.146;2024-02-26T15:52:59;1.77;;;0.80;;
36593;SDS011;22603;47.900;8.146;2024-02-26T15:55:45;2.07;;;1.00;;
36593;SDS011;22603;47.900;8.146;2024-02-26T15:58:32;0.93;;;0.80;;
36593;SDS011;22603;47.900;8.146;2024-02-26T16:01:19;3.17;;;0.90;;
36593;SDS011;22603;47.900;8.146;2024-02-26T16:04:11;1.87;;;0.80;;
36593;SDS011;22603;47.900;8.146;2024-02-26T16:06:58;2.57;;;1.00;;
36593;SDS011;22603;47.900;8.146;2024-02-26T16:09:50;3.33;;;0.90;;
36593;SDS011;22603;47.900;8.146;2024-02-26T16:12:38;2.40;;;1.03;;
36593;SDS011;22603;47.900;8.146;2024-02-26T16:15:28;1.90;;;1.10;;
36593;SDS011;22603;47.900;8.146;2024-02-26T16:18:16;2.73;;;1.10;;
36593;SDS011;22603;47.900;8.146;2024-02-26T16:21:05;2.60;;;1.00;;
36593;SDS011;22603;47.900;8.146;2024-02-26T16:23:52;4.03;;;1.17;;
36593;SDS011;22603;47.900;8.146;2024-02-26T16:26:39;2.10;;;1.10;;
36593;SDS011;22603;47.900;8.146;2024-02-26T16:29:26;1.87;;;1.13;;
36593;SDS011;22603;47.900;8.146;2024-02-26T16:32:12;2.80;;;1.20;;
36593;SDS011;22603;47.900;8.146;2024-02-26T16:35:00;2.67;;;1.23;;
36593;SDS011;22603;47.900;8.146;2024-02-26T16:37:49;3.13;;;1.30;;
36593;SDS011;22603;47.900;8.146;2024-02-26T16:40:36;0.87;;;0.80;;
36593;SDS011;22603;47.900;8.146;2024-02-26T16:43:26;3.40;;;1.40;;
36593;SDS011;22603;47.900;8.146;2024-02-26T16:46:13;2.23;;;1.00;;
36593;SDS011;22603;47.900;8.146;2024-02-26T16:49:01;2.93;;;1.23;;
36593;SDS011;22603;47.900;8.146;2024-02-26T16:51:52;2.07;;;1.20;;
36593;SDS011;22603;47.900;8.146;2024-02-26T16:54:41;3.83;;;1.30;;